createdAt,value
2018-10-03T00:00:17.861Z,1024.71
2018-10-03T00:01:17.499Z,1024.71
2018-10-03T00:02:17.538Z,1024.68
2018-10-03T00:03:17.538Z,1024.71
2018-10-03T00:04:17.472Z,1024.72
2018-10-03T00:05:17.549Z,1024.74
2018-10-03T00:06:17.608Z,1024.69
2018-10-03T00:07:17.488Z,1024.63
2018-10-03T00:08:17.585Z,1024.67
2018-10-03T00:09:17.490Z,1024.65
2018-10-03T00:10:17.566Z,1024.64
2018-10-03T00:11:17.623Z,1024.58
2018-10-03T00:12:17.545Z,1024.59
2018-10-03T00:13:17.582Z,1024.55
2018-10-03T00:14:17.489Z,1024.63
2018-10-03T00:15:17.563Z,1024.49
2018-10-03T00:16:17.588Z,1024.57
2018-10-03T00:17:17.635Z,1024.61
2018-10-03T00:18:17.532Z,1024.62
2018-10-03T00:19:17.511Z,1024.61
2018-10-03T00:20:17.545Z,1024.61
2018-10-03T00:21:17.453Z,1024.66
2018-10-03T00:22:17.493Z,1024.63
2018-10-03T00:24:17.525Z,1024.65
2018-10-03T00:25:17.527Z,1024.64
2018-10-03T00:26:17.722Z,1024.72
2018-10-03T00:27:17.546Z,1024.75
2018-10-03T00:28:17.563Z,1024.77
2018-10-03T00:29:17.576Z,1024.78
2018-10-03T00:30:17.521Z,1024.78
2018-10-03T00:31:17.458Z,1024.78
2018-10-03T00:32:17.488Z,1024.75
2018-10-03T00:33:17.862Z,1024.72
2018-10-03T00:34:17.511Z,1024.76
2018-10-03T00:35:17.485Z,1024.71
2018-10-03T00:36:17.496Z,1024.73
2018-10-03T00:37:17.500Z,1024.75
2018-10-03T00:38:17.518Z,1024.75
2018-10-03T00:39:17.566Z,1024.8
2018-10-03T00:40:17.468Z,1024.81
2018-10-03T00:41:17.488Z,1024.74
2018-10-03T00:42:17.418Z,1024.77
2018-10-03T00:43:17.437Z,1024.72
2018-10-03T00:44:17.498Z,1024.72
2018-10-03T00:45:17.416Z,1024.78
2018-10-03T00:46:17.488Z,1024.79
2018-10-03T00:47:17.439Z,1024.72
2018-10-03T00:48:17.457Z,1024.74
2018-10-03T00:49:17.446Z,1024.76
2018-10-03T00:50:17.456Z,1024.75
2018-10-03T00:51:17.467Z,1024.8
2018-10-03T00:52:17.433Z,1024.83
2018-10-03T00:53:17.415Z,1024.84
2018-10-03T00:54:17.434Z,1024.83
2018-10-03T00:55:17.383Z,1024.88
2018-10-03T00:56:17.407Z,1024.85
2018-10-03T00:57:17.437Z,1024.78
2018-10-03T00:58:17.430Z,1024.73
2018-10-03T00:59:17.412Z,1024.74
2018-10-03T01:00:17.430Z,1024.74
2018-10-03T01:01:17.449Z,1024.69
2018-10-03T01:02:17.416Z,1024.77
2018-10-03T01:03:17.508Z,1024.74
2018-10-03T01:04:17.624Z,1024.75
2018-10-03T01:05:17.734Z,1024.77
2018-10-03T01:06:18.042Z,1024.77
2018-10-03T01:07:17.420Z,1024.81
2018-10-03T01:08:17.717Z,1024.8
2018-10-03T01:09:17.483Z,1024.75
2018-10-03T01:10:17.381Z,1024.74
2018-10-03T01:11:17.457Z,1024.76
2018-10-03T01:12:17.403Z,1024.81
2018-10-03T01:13:17.428Z,1024.77
2018-10-03T01:14:17.589Z,1024.86
2018-10-03T01:15:17.409Z,1024.8
2018-10-03T01:16:17.503Z,1024.77
2018-10-03T01:17:17.424Z,1024.75
2018-10-03T01:18:17.470Z,1024.79
2018-10-03T01:19:17.447Z,1024.74
2018-10-03T01:20:17.472Z,1024.75
2018-10-03T01:21:17.519Z,1024.66
2018-10-03T01:22:17.452Z,1024.73
2018-10-03T01:23:17.549Z,1024.68
2018-10-03T01:24:17.545Z,1024.72
2018-10-03T01:25:17.755Z,1024.73
2018-10-03T01:26:17.417Z,1024.73
2018-10-03T01:27:17.443Z,1024.74
2018-10-03T01:28:17.558Z,1024.72
2018-10-03T01:29:18.207Z,1024.65
2018-10-03T01:30:17.498Z,1024.57
2018-10-03T01:31:17.402Z,1024.59
2018-10-03T01:32:17.382Z,1024.61
2018-10-03T01:33:17.412Z,1024.69
2018-10-03T01:34:17.452Z,1024.74
2018-10-03T01:35:17.503Z,1024.75
2018-10-03T01:36:17.390Z,1024.73
2018-10-03T01:37:17.370Z,1024.74
2018-10-03T01:38:17.498Z,1024.73
2018-10-03T01:39:17.384Z,1024.66
2018-10-03T01:40:17.452Z,1024.63
2018-10-03T01:41:17.406Z,1024.65
2018-10-03T01:42:17.386Z,1024.61
2018-10-03T01:43:17.504Z,1024.67
2018-10-03T01:44:17.381Z,1024.64
2018-10-03T01:45:17.411Z,1024.6
2018-10-03T01:46:17.568Z,1024.58
2018-10-03T01:47:17.474Z,1024.65
2018-10-03T01:48:17.344Z,1024.59
2018-10-03T01:49:17.487Z,1024.58
2018-10-03T01:50:17.436Z,1024.55
2018-10-03T01:51:17.356Z,1024.59
2018-10-03T01:52:17.412Z,1024.49
2018-10-03T01:53:17.468Z,1024.57
2018-10-03T01:54:17.459Z,1024.62
2018-10-03T01:55:17.334Z,1024.65
2018-10-03T01:56:17.641Z,1024.66
2018-10-03T01:57:17.388Z,1024.65
2018-10-03T01:58:17.487Z,1024.67
2018-10-03T01:59:17.380Z,1024.62
2018-10-03T02:00:17.403Z,1024.65
2018-10-03T02:01:17.465Z,1024.62
2018-10-03T02:02:17.363Z,1024.66
2018-10-03T02:03:17.627Z,1024.61
2018-10-03T02:04:17.317Z,1024.64
2018-10-03T02:05:17.319Z,1024.59
2018-10-03T02:06:17.341Z,1024.6
2018-10-03T02:07:17.325Z,1024.58
2018-10-03T02:08:17.314Z,1024.62
2018-10-03T02:09:17.496Z,1024.57
2018-10-03T02:10:17.424Z,1024.63
2018-10-03T02:11:17.336Z,1024.67
2018-10-03T02:12:17.325Z,1024.76
2018-10-03T02:13:17.337Z,1024.71
2018-10-03T02:14:17.373Z,1024.78
2018-10-03T02:15:17.592Z,1024.71
2018-10-03T02:16:17.309Z,1024.68
2018-10-03T02:17:17.304Z,1024.74
2018-10-03T02:18:17.348Z,1024.69
2018-10-03T02:19:17.688Z,1024.73
2018-10-03T02:20:17.295Z,1024.65
2018-10-03T02:21:17.294Z,1024.65
2018-10-03T02:22:17.306Z,1024.67
2018-10-03T02:23:17.312Z,1024.65
2018-10-03T02:24:17.283Z,1024.73
2018-10-03T02:25:17.300Z,1024.69
2018-10-03T02:26:17.330Z,1024.67
2018-10-03T02:27:17.333Z,1024.58
2018-10-03T02:28:17.323Z,1024.59
2018-10-03T02:29:17.302Z,1024.67
2018-10-03T02:30:17.287Z,1024.6
2018-10-03T02:31:17.579Z,1024.62
2018-10-03T02:32:17.302Z,1024.64
2018-10-03T02:33:17.447Z,1024.69
2018-10-03T02:34:17.374Z,1024.68
2018-10-03T02:35:17.325Z,1024.62
2018-10-03T02:36:18.125Z,1024.65
2018-10-03T02:37:17.680Z,1024.65
2018-10-03T02:38:17.334Z,1024.62
2018-10-03T02:39:17.366Z,1024.65
2018-10-03T02:40:17.540Z,1024.62
2018-10-03T02:41:17.424Z,1024.62
2018-10-03T02:42:17.548Z,1024.62
2018-10-03T02:43:17.456Z,1024.59
2018-10-03T02:44:17.560Z,1024.62
2018-10-03T02:45:17.430Z,1024.59
2018-10-03T02:46:17.529Z,1024.62
2018-10-03T02:47:17.487Z,1024.64
2018-10-03T02:48:17.351Z,1024.64
2018-10-03T02:49:17.299Z,1024.62
2018-10-03T02:50:17.374Z,1024.6
2018-10-03T02:51:17.308Z,1024.65
2018-10-03T02:52:17.493Z,1024.67
2018-10-03T02:53:17.300Z,1024.7
2018-10-03T02:54:17.426Z,1024.69
2018-10-03T02:55:17.275Z,1024.67
2018-10-03T02:56:17.279Z,1024.72
2018-10-03T02:57:17.652Z,1024.76
2018-10-03T02:58:17.661Z,1024.8
2018-10-03T02:59:17.248Z,1024.77
2018-10-03T03:00:17.416Z,1024.8
2018-10-03T03:01:17.324Z,1024.76
2018-10-03T03:02:17.469Z,1024.76
2018-10-03T03:03:17.264Z,1024.72
2018-10-03T03:04:17.427Z,1024.73
2018-10-03T03:05:17.333Z,1024.71
2018-10-03T03:06:17.309Z,1024.71
2018-10-03T03:07:17.643Z,1024.77
2018-10-03T03:08:17.260Z,1024.84
2018-10-03T03:09:17.781Z,1024.83
2018-10-03T03:10:17.289Z,1024.82
2018-10-03T03:11:17.242Z,1024.9
2018-10-03T03:12:17.236Z,1024.83
2018-10-03T03:13:17.414Z,1024.85
2018-10-03T03:14:17.225Z,1024.82
2018-10-03T03:15:17.236Z,1024.8
2018-10-03T03:16:17.478Z,1024.78
2018-10-03T03:17:17.534Z,1024.76
2018-10-03T03:18:17.364Z,1024.73
2018-10-03T03:19:17.484Z,1024.74
2018-10-03T03:20:17.208Z,1024.79
2018-10-03T03:21:17.217Z,1024.79
2018-10-03T03:22:17.412Z,1024.77
2018-10-03T03:23:17.232Z,1024.77
2018-10-03T03:24:17.278Z,1024.78
2018-10-03T03:25:17.186Z,1024.81
2018-10-03T03:26:17.545Z,1024.74
2018-10-03T03:27:17.264Z,1024.72
2018-10-03T03:28:17.248Z,1024.75
2018-10-03T03:29:17.306Z,1024.67
2018-10-03T03:30:17.376Z,1024.78
2018-10-03T03:31:17.407Z,1024.74
2018-10-03T03:32:17.367Z,1024.73
2018-10-03T03:33:17.235Z,1024.75
2018-10-03T03:34:17.436Z,1024.76
2018-10-03T03:35:17.547Z,1024.74
2018-10-03T03:36:17.229Z,1024.72
2018-10-03T03:37:17.265Z,1024.75
2018-10-03T03:38:17.268Z,1024.78
2018-10-03T03:39:17.214Z,1024.81
2018-10-03T03:40:17.222Z,1024.83
2018-10-03T03:41:17.207Z,1024.78
2018-10-03T03:42:17.400Z,1024.82
2018-10-03T03:43:17.215Z,1024.84
2018-10-03T03:44:17.214Z,1024.84
2018-10-03T03:45:17.178Z,1024.84
2018-10-03T03:46:17.196Z,1024.83
2018-10-03T03:47:17.213Z,1024.83
2018-10-03T03:48:17.228Z,1024.91
2018-10-03T03:49:17.194Z,1024.87
2018-10-03T03:50:17.187Z,1024.95
2018-10-03T03:51:17.195Z,1024.96
2018-10-03T03:52:17.167Z,1024.97
2018-10-03T03:53:17.250Z,1024.99
2018-10-03T03:54:17.208Z,1024.98
2018-10-03T03:55:17.238Z,1025.01
2018-10-03T03:56:17.194Z,1024.96
2018-10-03T03:57:17.199Z,1024.97
2018-10-03T03:58:17.375Z,1024.94
2018-10-03T03:59:17.189Z,1025
2018-10-03T04:00:17.213Z,1024.98
2018-10-03T04:01:17.212Z,1024.99
2018-10-03T04:02:17.230Z,1024.91
2018-10-03T04:03:17.192Z,1024.99
2018-10-03T04:04:17.423Z,1024.95
2018-10-03T04:05:17.178Z,1024.98
2018-10-03T04:06:17.276Z,1025.03
2018-10-03T04:07:17.157Z,1025.04
2018-10-03T04:08:17.212Z,1025.01
2018-10-03T04:09:17.320Z,1025.03
2018-10-03T04:10:17.208Z,1025.02
2018-10-03T04:11:17.261Z,1024.94
2018-10-03T04:12:17.195Z,1024.95
2018-10-03T04:13:17.246Z,1024.97
2018-10-03T04:14:17.298Z,1025
2018-10-03T04:15:17.221Z,1024.99
2018-10-03T04:16:17.285Z,1024.97
2018-10-03T04:17:17.217Z,1024.99
2018-10-03T04:18:17.116Z,1025.04
2018-10-03T04:19:17.213Z,1025.03
2018-10-03T04:20:17.405Z,1025.08
2018-10-03T04:21:17.122Z,1025.06
2018-10-03T04:22:17.164Z,1025.03
2018-10-03T04:23:17.122Z,1025.12
2018-10-03T04:24:17.331Z,1025.1
2018-10-03T04:25:17.422Z,1025.08
2018-10-03T04:26:17.165Z,1025.17
2018-10-03T04:27:17.503Z,1025.11
2018-10-03T04:28:17.125Z,1025.16
2018-10-03T04:29:17.148Z,1025.14
2018-10-03T04:30:17.197Z,1025.13
2018-10-03T04:31:17.200Z,1025.14
2018-10-03T04:32:17.589Z,1025.16
2018-10-03T04:33:17.120Z,1025.1
2018-10-03T04:34:17.491Z,1025.12
2018-10-03T04:35:17.109Z,1025.12
2018-10-03T04:36:17.465Z,1025.1
2018-10-03T04:37:17.114Z,1025.06
2018-10-03T04:38:17.430Z,1025.08
2018-10-03T04:39:17.136Z,1025.05
2018-10-03T04:40:17.100Z,1025.11
2018-10-03T04:41:17.196Z,1025.08
2018-10-03T04:42:17.445Z,1025.09
2018-10-03T04:43:17.360Z,1025.08
2018-10-03T04:44:17.118Z,1025.14
2018-10-03T04:45:17.434Z,1025.21
2018-10-03T04:46:17.374Z,1025.24
2018-10-03T04:47:17.389Z,1025.24
2018-10-03T04:48:17.084Z,1025.29
2018-10-03T04:49:17.305Z,1025.25
2018-10-03T04:50:17.150Z,1025.29
2018-10-03T04:51:17.308Z,1025.29
2018-10-03T04:52:17.101Z,1025.31
2018-10-03T04:53:17.082Z,1025.3
2018-10-03T04:54:17.174Z,1025.35
2018-10-03T04:55:17.107Z,1025.35
2018-10-03T04:56:17.210Z,1025.42
2018-10-03T04:57:17.276Z,1025.42
2018-10-03T04:58:17.085Z,1025.38
2018-10-03T04:59:17.124Z,1025.42
2018-10-03T05:00:17.236Z,1025.43
2018-10-03T05:01:17.276Z,1025.42
2018-10-03T05:02:17.067Z,1025.43
2018-10-03T05:03:17.223Z,1025.47
2018-10-03T05:04:17.220Z,1025.5
2018-10-03T05:05:17.059Z,1025.45
2018-10-03T05:06:17.128Z,1025.5
2018-10-03T05:07:17.049Z,1025.48
2018-10-03T05:08:17.365Z,1025.53
2018-10-03T05:09:17.075Z,1025.51
2018-10-03T05:10:17.046Z,1025.48
2018-10-03T05:11:17.268Z,1025.54
2018-10-03T05:12:17.094Z,1025.55
2018-10-03T05:13:17.055Z,1025.5
2018-10-03T05:14:17.317Z,1025.52
2018-10-03T05:15:17.053Z,1025.52
2018-10-03T05:16:17.074Z,1025.53
2018-10-03T05:17:17.059Z,1025.52
2018-10-03T05:18:17.062Z,1025.57
2018-10-03T05:19:17.056Z,1025.55
2018-10-03T05:20:17.052Z,1025.6
2018-10-03T05:21:17.036Z,1025.57
2018-10-03T05:22:17.040Z,1025.6
2018-10-03T05:23:17.033Z,1025.57
2018-10-03T05:24:17.038Z,1025.58
2018-10-03T05:25:17.031Z,1025.61
2018-10-03T05:26:17.044Z,1025.57
2018-10-03T05:27:17.398Z,1025.59
2018-10-03T05:28:17.238Z,1025.6
2018-10-03T05:29:17.073Z,1025.55
2018-10-03T05:30:17.118Z,1025.54
2018-10-03T05:31:17.289Z,1025.62
2018-10-03T05:32:17.488Z,1025.6
2018-10-03T05:33:17.267Z,1025.61
2018-10-03T05:34:17.293Z,1025.66
2018-10-03T05:35:17.389Z,1025.62
2018-10-03T05:36:17.045Z,1025.66
2018-10-03T05:37:17.037Z,1025.66
2018-10-03T05:38:17.033Z,1025.7
2018-10-03T05:39:17.172Z,1025.73
2018-10-03T05:40:17.018Z,1025.75
2018-10-03T05:41:17.160Z,1025.75
2018-10-03T05:42:17.096Z,1025.74
2018-10-03T05:43:17.252Z,1025.8
2018-10-03T05:44:17.028Z,1025.79
2018-10-03T05:45:17.013Z,1025.79
2018-10-03T05:46:17.035Z,1025.79
2018-10-03T05:47:17.026Z,1025.82
2018-10-03T05:48:17.242Z,1025.8
2018-10-03T05:49:17.194Z,1025.83
2018-10-03T05:50:17.049Z,1025.83
2018-10-03T05:51:17.297Z,1025.89
2018-10-03T05:52:17.131Z,1025.87
2018-10-03T05:53:17.496Z,1025.96
2018-10-03T05:54:17.401Z,1025.92
2018-10-03T05:55:16.981Z,1025.96
2018-10-03T05:56:17.040Z,1025.93
2018-10-03T05:57:17.138Z,1025.95
2018-10-03T05:58:17.014Z,1025.95
2018-10-03T05:59:17.304Z,1026
2018-10-03T06:00:17.282Z,1026.04
2018-10-03T06:01:17.529Z,1026.05
2018-10-03T06:02:17.153Z,1026.05
2018-10-03T06:03:17.194Z,1026.06
2018-10-03T06:04:17.121Z,1026.07
2018-10-03T06:05:17.314Z,1026.06
2018-10-03T06:06:17.410Z,1026.06
2018-10-03T06:07:17.219Z,1026.05
2018-10-03T06:08:17.085Z,1026.07
2018-10-03T06:09:17.108Z,1026.08
2018-10-03T06:10:16.993Z,1026.09
2018-10-03T06:11:16.990Z,1026.11
2018-10-03T06:12:17.267Z,1026.1
2018-10-03T06:13:16.993Z,1026.15
2018-10-03T06:14:17.461Z,1026.23
2018-10-03T06:15:17.152Z,1026.12
2018-10-03T06:16:17.181Z,1026.14
2018-10-03T06:17:17.047Z,1026.16
2018-10-03T06:18:17.134Z,1026.23
2018-10-03T06:19:17.104Z,1026.24
2018-10-03T06:20:17.025Z,1026.3
2018-10-03T06:21:17.172Z,1026.36
2018-10-03T06:22:17.094Z,1026.33
2018-10-03T06:23:17.053Z,1026.4
2018-10-03T06:24:17.083Z,1026.39
2018-10-03T06:25:17.029Z,1026.44
2018-10-03T06:26:17.083Z,1026.42
2018-10-03T06:27:16.972Z,1026.53
2018-10-03T06:28:17.344Z,1026.53
2018-10-03T06:29:17.109Z,1026.53
2018-10-03T06:30:16.984Z,1026.55
2018-10-03T06:31:17.170Z,1026.54
2018-10-03T06:32:17.091Z,1026.59
2018-10-03T06:33:17.087Z,1026.63
2018-10-03T06:34:17.024Z,1026.63
2018-10-03T06:35:17.215Z,1026.64
2018-10-03T06:36:18.100Z,1026.62
2018-10-03T06:37:16.964Z,1026.68
2018-10-03T06:38:16.988Z,1026.65
2018-10-03T06:39:17.063Z,1026.68
2018-10-03T06:40:17.044Z,1026.72
2018-10-03T06:41:17.000Z,1026.72
2018-10-03T06:42:17.046Z,1026.75
2018-10-03T06:43:16.965Z,1026.72
2018-10-03T06:44:17.136Z,1026.67
2018-10-03T06:45:17.163Z,1026.65
2018-10-03T06:46:16.938Z,1026.67
2018-10-03T06:47:16.981Z,1026.66
2018-10-03T06:48:16.998Z,1026.66
2018-10-03T06:49:16.948Z,1026.61
2018-10-03T06:50:16.947Z,1026.59
2018-10-03T06:51:16.970Z,1026.63
2018-10-03T06:52:17.149Z,1026.69
2018-10-03T06:54:17.055Z,1026.67
2018-10-03T06:55:17.155Z,1026.7
2018-10-03T06:56:17.278Z,1026.78
2018-10-03T06:57:16.899Z,1026.81
2018-10-03T06:58:17.102Z,1026.81
2018-10-03T06:59:17.232Z,1026.86
2018-10-03T07:00:17.061Z,1026.84
2018-10-03T07:01:17.050Z,1026.83
2018-10-03T07:02:17.056Z,1026.84
2018-10-03T07:03:16.864Z,1026.94
2018-10-03T07:04:17.126Z,1026.99
2018-10-03T07:05:16.970Z,1026.94
2018-10-03T07:06:17.047Z,1026.98
2018-10-03T07:07:17.064Z,1026.98
2018-10-03T07:08:17.216Z,1027.02
2018-10-03T07:09:16.926Z,1027
2018-10-03T07:10:17.133Z,1027.05
2018-10-03T07:11:17.151Z,1027.08
2018-10-03T07:12:17.005Z,1027.03
2018-10-03T07:13:16.954Z,1027.03
2018-10-03T07:14:17.025Z,1026.98
2018-10-03T07:15:17.170Z,1027.01
2018-10-03T07:16:17.078Z,1027.02
2018-10-03T07:17:16.930Z,1026.99
2018-10-03T07:18:16.950Z,1027
2018-10-03T07:19:16.886Z,1027.06
2018-10-03T07:20:17.215Z,1027.06
2018-10-03T07:21:24.215Z,1027.12
2018-10-03T07:22:16.981Z,1027.06
2018-10-03T07:23:16.912Z,1027.15
2018-10-03T07:24:17.161Z,1027.11
2018-10-03T07:25:16.873Z,1027.13
2018-10-03T07:26:17.052Z,1027.1
2018-10-03T07:27:16.977Z,1027.15
2018-10-03T07:28:17.019Z,1027.14
2018-10-03T07:29:17.051Z,1027.18
2018-10-03T07:30:16.967Z,1027.13
2018-10-03T07:31:17.054Z,1027.13
2018-10-03T07:32:16.918Z,1027.18
2018-10-03T07:33:16.985Z,1027.12
2018-10-03T07:34:16.902Z,1027.14
2018-10-03T07:35:16.884Z,1027.09
2018-10-03T07:36:16.866Z,1027.07
2018-10-03T07:37:16.858Z,1027.06
2018-10-03T07:38:16.953Z,1027.04
2018-10-03T07:39:16.984Z,1026.99
2018-10-03T07:40:17.079Z,1027
2018-10-03T07:41:16.934Z,1027.1
2018-10-03T07:42:17.705Z,1027.09
2018-10-03T07:43:17.099Z,1027.08
2018-10-03T07:44:17.557Z,1027.08
2018-10-03T07:45:17.205Z,1027.09
2018-10-03T07:46:16.900Z,1027.06
2018-10-03T07:47:17.252Z,1027.07
2018-10-03T07:48:17.192Z,1026.99
2018-10-03T07:49:16.956Z,1027.03
2018-10-03T07:50:16.976Z,1027.07
2018-10-03T07:51:16.865Z,1027.04
2018-10-03T07:52:16.888Z,1027.15
2018-10-03T07:53:17.026Z,1027.13
2018-10-03T07:54:17.132Z,1027.1
2018-10-03T07:55:17.207Z,1027.14
2018-10-03T07:56:17.177Z,1027.19
2018-10-03T07:57:16.882Z,1027.16
2018-10-03T07:58:16.984Z,1027.23
2018-10-03T07:59:16.958Z,1027.2
2018-10-03T08:00:16.984Z,1027.2
2018-10-03T08:01:16.887Z,1027.26
2018-10-03T08:02:16.873Z,1027.23
2018-10-03T08:03:16.798Z,1027.27
2018-10-03T08:04:16.819Z,1027.25
2018-10-03T08:05:17.057Z,1027.31
2018-10-03T08:06:16.971Z,1027.36
2018-10-03T08:07:16.787Z,1027.37
2018-10-03T08:08:16.985Z,1027.37
2018-10-03T08:09:16.946Z,1027.39
2018-10-03T08:10:16.802Z,1027.36
2018-10-03T08:11:16.843Z,1027.35
2018-10-03T08:12:16.823Z,1027.34
2018-10-03T08:13:17.048Z,1027.35
2018-10-03T08:14:16.924Z,1027.32
2018-10-03T08:15:16.836Z,1027.3
2018-10-03T08:16:16.825Z,1027.3
2018-10-03T08:17:16.956Z,1027.3
2018-10-03T08:18:17.041Z,1027.23
2018-10-03T08:19:17.055Z,1027.28
2018-10-03T08:20:16.797Z,1027.33
2018-10-03T08:21:16.760Z,1027.25
2018-10-03T08:22:16.861Z,1027.26
2018-10-03T08:23:16.831Z,1027.27
2018-10-03T08:24:16.820Z,1027.37
2018-10-03T08:25:17.073Z,1027.31
2018-10-03T08:26:16.797Z,1027.28
2018-10-03T08:27:16.992Z,1027.29
2018-10-03T08:28:16.922Z,1027.32
2018-10-03T08:29:16.811Z,1027.33
2018-10-03T08:30:16.774Z,1027.33
2018-10-03T08:31:17.116Z,1027.35
2018-10-03T08:32:17.106Z,1027.29
2018-10-03T08:33:16.985Z,1027.33
2018-10-03T08:34:16.821Z,1027.35
2018-10-03T08:35:16.821Z,1027.32
2018-10-03T08:36:16.770Z,1027.35
2018-10-03T08:37:16.918Z,1027.29
2018-10-03T08:38:16.897Z,1027.28
2018-10-03T08:39:16.968Z,1027.29
2018-10-03T08:40:17.014Z,1027.24
2018-10-03T08:41:17.264Z,1027.27
2018-10-03T08:42:16.977Z,1027.26
2018-10-03T08:43:16.801Z,1027.24
2018-10-03T08:44:16.865Z,1027.32
2018-10-03T08:45:16.813Z,1027.33
2018-10-03T08:46:17.018Z,1027.29
2018-10-03T08:47:16.919Z,1027.28
2018-10-03T08:48:16.971Z,1027.29
2018-10-03T08:49:17.048Z,1027.31
2018-10-03T08:50:17.041Z,1027.3
2018-10-03T08:51:16.961Z,1027.35
2018-10-03T08:52:17.019Z,1027.41
2018-10-03T08:53:16.770Z,1027.44
2018-10-03T08:54:17.425Z,1027.41
2018-10-03T08:55:16.737Z,1027.44
2018-10-03T08:56:16.779Z,1027.4
2018-10-03T08:57:16.913Z,1027.38
2018-10-03T08:58:17.096Z,1027.39
2018-10-03T08:59:16.748Z,1027.43
2018-10-03T09:00:16.928Z,1027.46
2018-10-03T09:01:16.732Z,1027.44
2018-10-03T09:02:16.937Z,1027.41
2018-10-03T09:03:16.734Z,1027.35
2018-10-03T09:04:16.733Z,1027.34
2018-10-03T09:05:16.808Z,1027.31
2018-10-03T09:06:16.937Z,1027.31
2018-10-03T09:07:16.815Z,1027.29
2018-10-03T09:08:16.785Z,1027.3
2018-10-03T09:09:16.752Z,1027.27
2018-10-03T09:10:16.946Z,1027.38
2018-10-03T09:11:16.780Z,1027.35
2018-10-03T09:12:16.729Z,1027.34
2018-10-03T09:13:16.725Z,1027.32
2018-10-03T09:14:16.967Z,1027.33
2018-10-03T09:15:16.983Z,1027.38
2018-10-03T09:16:16.817Z,1027.37
2018-10-03T09:17:16.819Z,1027.34
2018-10-03T09:18:16.988Z,1027.34
2018-10-03T09:19:17.045Z,1027.32
2018-10-03T09:20:16.740Z,1027.33
2018-10-03T09:21:17.005Z,1027.31
2018-10-03T09:22:16.721Z,1027.35
2018-10-03T09:23:16.703Z,1027.37
2018-10-03T09:24:16.871Z,1027.26
2018-10-03T09:25:16.937Z,1027.3
2018-10-03T09:26:16.962Z,1027.33
2018-10-03T09:27:16.764Z,1027.27
2018-10-03T09:28:16.824Z,1027.3
2018-10-03T09:29:16.788Z,1027.36
2018-10-03T09:30:16.676Z,1027.42
2018-10-03T09:31:16.797Z,1027.43
2018-10-03T09:32:16.792Z,1027.49
2018-10-03T09:33:16.670Z,1027.46
2018-10-03T09:34:16.797Z,1027.47
2018-10-03T09:35:16.975Z,1027.52
2018-10-03T09:36:16.916Z,1027.45
2018-10-03T09:37:16.680Z,1027.48
2018-10-03T09:38:16.716Z,1027.5
2018-10-03T09:39:16.687Z,1027.5
2018-10-03T09:40:16.730Z,1027.47
2018-10-03T09:41:18.995Z,1027.47
2018-10-03T09:43:18.063Z,1027.5
2018-10-03T09:44:16.806Z,1027.56
2018-10-03T09:45:16.735Z,1027.55
2018-10-03T09:46:16.660Z,1027.5
2018-10-03T09:47:16.707Z,1027.54
2018-10-03T09:49:16.303Z,1027.55
2018-10-03T09:50:16.678Z,1027.53
2018-10-03T09:51:16.698Z,1027.52
2018-10-03T09:52:16.918Z,1027.51
2018-10-03T09:53:16.961Z,1027.55
2018-10-03T09:54:16.799Z,1027.48
2018-10-03T09:55:16.684Z,1027.51
2018-10-03T09:56:16.836Z,1027.53
2018-10-03T09:57:16.840Z,1027.56
2018-10-03T09:58:16.684Z,1027.59
2018-10-03T09:59:16.647Z,1027.58
2018-10-03T10:00:16.917Z,1027.55
2018-10-03T10:01:16.748Z,1027.54
2018-10-03T10:02:16.680Z,1027.59
2018-10-03T10:03:16.783Z,1027.54
2018-10-03T10:04:17.910Z,1027.56
2018-10-03T10:05:16.656Z,1027.6
2018-10-03T10:06:16.722Z,1027.57
2018-10-03T10:07:16.646Z,1027.53
2018-10-03T10:08:16.854Z,1027.54
2018-10-03T10:09:16.823Z,1027.52
2018-10-03T10:10:16.951Z,1027.53
2018-10-03T10:11:17.095Z,1027.49
2018-10-03T10:12:17.016Z,1027.54
2018-10-03T10:13:16.729Z,1027.51
2018-10-03T10:14:16.985Z,1027.55
2018-10-03T10:15:16.738Z,1027.49
2018-10-03T10:16:16.667Z,1027.43
2018-10-03T10:17:16.629Z,1027.49
2018-10-03T10:18:16.688Z,1027.49
2018-10-03T10:19:16.729Z,1027.5
2018-10-03T10:20:16.768Z,1027.46
2018-10-03T10:21:16.755Z,1027.45
2018-10-03T10:22:16.711Z,1027.46
2018-10-03T10:23:16.935Z,1027.5
2018-10-03T10:24:16.604Z,1027.5
2018-10-03T10:25:16.634Z,1027.54
2018-10-03T10:26:16.614Z,1027.54
2018-10-03T10:27:16.752Z,1027.53
2018-10-03T10:28:16.628Z,1027.55
2018-10-03T10:29:16.636Z,1027.55
2018-10-03T10:30:17.003Z,1027.56
2018-10-03T10:31:16.670Z,1027.59
2018-10-03T10:32:17.032Z,1027.61
2018-10-03T10:33:16.649Z,1027.59
2018-10-03T10:34:16.980Z,1027.59
2018-10-03T10:35:16.617Z,1027.57
2018-10-03T10:36:16.708Z,1027.67
2018-10-03T10:37:16.604Z,1027.68
2018-10-03T10:38:17.028Z,1027.66
2018-10-03T10:39:16.616Z,1027.71
2018-10-03T10:40:17.258Z,1027.68
2018-10-03T10:41:17.090Z,1027.68
2018-10-03T10:42:16.653Z,1027.68
2018-10-03T10:43:16.885Z,1027.68
2018-10-03T10:44:16.948Z,1027.68
2018-10-03T10:45:16.854Z,1027.69
2018-10-03T10:46:16.759Z,1027.72
2018-10-03T10:47:16.757Z,1027.71
2018-10-03T10:48:16.804Z,1027.67
2018-10-03T10:49:16.576Z,1027.68
2018-10-03T10:50:17.007Z,1027.7
2018-10-03T10:51:16.798Z,1027.69
2018-10-03T10:52:16.701Z,1027.64
2018-10-03T10:53:16.936Z,1027.66
2018-10-03T10:54:16.815Z,1027.68
2018-10-03T10:55:16.832Z,1027.68
2018-10-03T10:56:16.824Z,1027.74
2018-10-03T10:57:16.830Z,1027.71
2018-10-03T10:58:16.617Z,1027.73
2018-10-03T10:59:16.755Z,1027.68
2018-10-03T11:00:16.938Z,1027.74
2018-10-03T11:01:17.178Z,1027.7
2018-10-03T11:02:16.769Z,1027.71
2018-10-03T11:03:16.780Z,1027.72
2018-10-03T11:04:16.786Z,1027.67
2018-10-03T11:05:16.791Z,1027.72
2018-10-03T11:06:16.917Z,1027.71
2018-10-03T11:07:16.713Z,1027.72
2018-10-03T11:08:16.672Z,1027.76
2018-10-03T11:09:16.707Z,1027.67
2018-10-03T11:10:16.717Z,1027.72
2018-10-03T11:11:16.740Z,1027.68
2018-10-03T11:12:17.887Z,1027.69
2018-10-03T11:13:17.571Z,1027.71
2018-10-03T11:14:16.563Z,1027.65
2018-10-03T11:15:16.583Z,1027.65
2018-10-03T11:16:16.588Z,1027.66
2018-10-03T11:17:16.598Z,1027.67
2018-10-03T11:18:16.555Z,1027.64
2018-10-03T11:19:16.583Z,1027.61
2018-10-03T11:20:16.684Z,1027.67
2018-10-03T11:21:16.574Z,1027.64
2018-10-03T11:22:16.619Z,1027.68
2018-10-03T11:23:16.814Z,1027.66
2018-10-03T11:24:16.933Z,1027.68
2018-10-03T11:25:16.746Z,1027.7
2018-10-03T11:26:16.714Z,1027.69
2018-10-03T11:27:16.682Z,1027.64
2018-10-03T11:28:16.691Z,1027.63
2018-10-03T11:29:16.210Z,1027.69
2018-10-03T11:30:16.574Z,1027.65
2018-10-03T11:31:16.565Z,1027.67
2018-10-03T11:32:16.913Z,1027.69
2018-10-03T11:33:16.663Z,1027.62
2018-10-03T11:34:16.554Z,1027.61
2018-10-03T11:35:16.722Z,1027.65
2018-10-03T11:36:16.577Z,1027.67
2018-10-03T11:37:16.721Z,1027.66
2018-10-03T11:38:16.787Z,1027.68
2018-10-03T11:39:16.835Z,1027.66
2018-10-03T11:40:16.809Z,1027.67
2018-10-03T11:41:16.531Z,1027.68
2018-10-03T11:42:16.651Z,1027.64
2018-10-03T11:43:16.525Z,1027.58
2018-10-03T11:44:16.677Z,1027.62
2018-10-03T11:45:16.547Z,1027.61
2018-10-03T11:46:16.518Z,1027.61
2018-10-03T11:47:16.633Z,1027.5
2018-10-03T11:48:16.629Z,1027.52
2018-10-03T11:49:16.501Z,1027.53
2018-10-03T11:50:16.594Z,1027.51
2018-10-03T11:51:16.704Z,1027.49
2018-10-03T11:52:16.709Z,1027.43
2018-10-03T11:53:16.513Z,1027.47
2018-10-03T11:54:16.523Z,1027.44
2018-10-03T11:55:16.501Z,1027.43
2018-10-03T11:56:16.729Z,1027.46
2018-10-03T11:57:16.597Z,1027.46
2018-10-03T11:58:16.520Z,1027.45
2018-10-03T11:59:16.516Z,1027.45
2018-10-03T12:00:16.555Z,1027.47
2018-10-03T12:01:16.656Z,1027.45
2018-10-03T12:02:16.780Z,1027.49
2018-10-03T12:03:16.997Z,1027.45
2018-10-03T12:04:16.688Z,1027.45
2018-10-03T12:05:16.517Z,1027.45
2018-10-03T12:06:16.518Z,1027.38
2018-10-03T12:07:16.517Z,1027.38
2018-10-03T12:08:17.324Z,1027.35
2018-10-03T12:09:16.691Z,1027.35
2018-10-03T12:10:16.744Z,1027.47
2018-10-03T12:11:16.595Z,1027.46
2018-10-03T12:12:16.536Z,1027.43